Time;durP1;ratioP1;P1;durP2;ratioP2;P2;SDS_P1;SDS_P2;PMS_P1;PMS_P2;Temp;Humidity;BMP_temperature;BMP_pressure;BME280_temperature;BME280_humidity;BME280_pressure;Samples;Min_cycle;Max_cycle;Signal;HPM_P1;HPM_P2
2021/08/22 00:01:02;;;;;;;73.77;31.43;;;18.00;99.90;;;;;;5056967;28;21440;-75
2021/08/22 00:03:29;;;;;;;75.83;31.23;;;18.10;99.90;;;;;;5057645;28;20295;-75
2021/08/22 00:05:56;;;;;;;72.20;32.27;;;18.00;99.90;;;;;;5054592;28;20254;-77
2021/08/22 00:08:24;;;;;;;78.47;31.60;;;18.00;99.90;;;;;;5054842;28;20288;-75
2021/08/22 00:10:51;;;;;;;74.13;31.33;;;18.00;99.90;;;;;;5053813;28;20637;-75
2021/08/22 00:13:19;;;;;;;82.73;32.03;;;18.00;99.90;;;;;;5053219;28;20700;-78
2021/08/22 00:15:46;;;;;;;72.90;31.83;;;18.10;99.90;;;;;;5055188;28;20220;-75
2021/08/22 00:18:13;;;;;;;81.73;31.63;;;18.10;99.90;;;;;;5063956;28;20650;-75
2021/08/22 00:20:40;;;;;;;78.37;31.83;;;18.00;99.90;;;;;;5059175;28;20283;-75
2021/08/22 00:23:07;;;;;;;81.30;33.03;;;18.00;99.90;;;;;;5056088;28;20282;-75
2021/08/22 00:25:35;;;;;;;77.40;32.33;;;17.90;99.90;;;;;;5058154;28;20208;-75
2021/08/22 00:28:02;;;;;;;86.63;33.87;;;17.90;99.90;;;;;;5058331;28;20204;-76
2021/08/22 00:30:29;;;;;;;84.50;34.00;;;17.80;99.90;;;;;;5052600;28;20243;-76
2021/08/22 00:32:56;;;;;;;79.60;34.40;;;17.90;99.90;;;;;;5052272;28;20255;-75
2021/08/22 00:35:24;;;;;;;85.43;35.57;;;17.90;99.90;;;;;;5059455;28;20291;-75
2021/08/22 00:37:50;;;;;;;89.40;36.07;;;17.90;99.90;;;;;;5054065;28;20202;-75
2021/08/22 00:40:18;;;;;;;94.10;36.93;;;17.90;99.90;;;;;;5057392;28;20200;-75
2021/08/22 00:42:47;;;;;;;88.77;37.03;;;17.80;99.90;;;;;;5058129;28;20215;-75
2021/08/22 00:45:15;;;;;;;92.10;39.40;;;17.80;99.90;;;;;;5052806;28;20203;-76
2021/08/22 00:47:43;;;;;;;94.57;39.50;;;17.70;99.90;;;;;;5061353;28;20286;-75
2021/08/22 00:50:13;;;;;;;93.07;39.27;;;17.70;99.90;;;;;;5072486;28;20223;-74
2021/08/22 00:52:40;;;;;;;87.47;37.80;;;17.70;99.90;;;;;;5066575;28;20215;-74
2021/08/22 00:55:08;;;;;;;88.23;38.30;;;17.80;99.90;;;;;;5065844;28;20290;-74
2021/08/22 00:57:36;;;;;;;84.53;36.43;;;17.80;99.90;;;;;;5072722;28;20283;-74
2021/08/22 01:00:07;;;;;;;94.67;40.30;;;17.80;99.90;;;;;;5072854;28;20205;-74
2021/08/22 01:02:36;;;;;;;84.40;37.37;;;17.70;99.90;;;;;;5072547;28;20290;-76
2021/08/22 01:05:11;;;;;;;85.60;37.17;;;17.70;99.90;;;;;;5072355;28;20662;-76
2021/08/22 01:07:45;;;;;;;83.50;36.13;;;17.70;99.90;;;;;;5072298;28;20197;-75
2021/08/22 01:10:17;;;;;;;81.53;36.50;;;17.70;99.90;;;;;;5072446;28;20724;-76
2021/08/22 01:12:48;;;;;;;82.23;36.10;;;17.70;99.90;;;;;;5072182;28;20700;-75
2021/08/22 01:15:18;;;;;;;78.20;35.33;;;17.70;99.90;;;;;;5072371;28;20206;-75
2021/08/22 01:17:48;;;;;;;78.73;35.80;;;17.70;99.90;;;;;;5071939;28;20633;-75
2021/08/22 01:20:21;;;;;;;79.17;34.10;;;17.80;99.90;;;;;;5072393;28;20287;-76
2021/08/22 01:22:50;;;;;;;79.37;35.97;;;17.90;99.90;;;;;;5072020;28;20749;-76
2021/08/22 01:25:17;;;;;;;65.83;32.20;;;17.90;99.90;;;;;;5072419;28;20284;-75
2021/08/22 01:27:46;;;;;;;74.07;33.10;;;17.90;99.90;;;;;;5072296;28;20653;-77
2021/08/22 01:30:15;;;;;;;61.80;31.10;;;17.90;99.90;;;;;;5072252;28;20227;-78
2021/08/22 01:32:45;;;;;;;64.27;32.10;;;17.90;99.90;;;;;;5072163;28;20234;-76
2021/08/22 01:35:14;;;;;;;62.53;29.80;;;17.90;99.90;;;;;;5058983;28;20227;-75
2021/08/22 01:37:43;;;;;;;62.87;30.17;;;17.90;99.90;;;;;;5072287;28;20203;-75
2021/08/22 01:40:12;;;;;;;57.23;30.20;;;17.90;99.90;;;;;;5072047;28;20726;-76
2021/08/22 01:42:41;;;;;;;54.87;28.97;;;17.80;99.90;;;;;;5072112;28;20223;-78
2021/08/22 01:45:10;;;;;;;58.73;28.63;;;17.90;99.90;;;;;;5072100;28;20725;-75
2021/08/22 01:47:40;;;;;;;56.63;29.97;;;17.90;99.90;;;;;;5072303;28;20228;-77
2021/08/22 01:50:11;;;;;;;58.00;28.73;;;17.80;99.90;;;;;;5072202;28;20279;-78
2021/08/22 01:52:38;;;;;;;58.23;29.83;;;17.80;99.90;;;;;;5071965;28;20230;-75
2021/08/22 01:55:06;;;;;;;58.73;29.03;;;17.60;99.90;;;;;;5072143;28;20286;-78
2021/08/22 01:57:33;;;;;;;59.03;30.03;;;17.50;99.90;;;;;;5071676;28;20542;-76
2021/08/22 02:00:00;;;;;;;56.17;28.83;;;17.50;99.90;;;;;;5072003;28;20290;-75
2021/08/22 02:02:27;;;;;;;53.47;27.93;;;17.50;99.90;;;;;;5072133;28;20203;-77
2021/08/22 02:04:59;;;;;;;54.70;28.63;;;17.50;99.90;;;;;;5072024;28;20294;-74
2021/08/22 02:07:31;;;;;;;53.70;27.70;;;17.50;99.90;;;;;;5072917;28;20286;-77
2021/08/22 02:10:04;;;;;;;53.63;27.87;;;17.60;99.90;;;;;;5075827;28;20291;-78
2021/08/22 02:12:31;;;;;;;53.20;27.57;;;17.60;99.90;;;;;;5075470;28;20283;-77
2021/08/22 02:15:02;;;;;;;52.23;28.07;;;17.50;99.90;;;;;;5075184;28;20255;-76
2021/08/22 02:17:33;;;;;;;55.33;28.77;;;17.60;99.90;;;;;;5075216;28;20674;-75
2021/08/22 02:20:02;;;;;;;58.33;28.07;;;17.70;99.90;;;;;;5075748;28;20210;-76
2021/08/22 02:22:31;;;;;;;49.50;28.47;;;17.70;99.90;;;;;;5075289;28;20223;-75
2021/08/22 02:24:59;;;;;;;50.73;28.80;;;17.70;99.90;;;;;;5075120;28;20203;-77
2021/08/22 02:27:28;;;;;;;53.17;27.93;;;17.70;99.90;;;;;;5075332;28;20207;-76
2021/08/22 02:29:56;;;;;;;46.23;26.80;;;17.70;99.90;;;;;;5075197;28;20226;-79
2021/08/22 02:32:24;;;;;;;48.13;27.47;;;17.70;99.90;;;;;;5074968;28;20200;-78
2021/08/22 02:34:51;;;;;;;50.30;28.70;;;17.70;99.90;;;;;;5074803;28;20227;-75
2021/08/22 02:37:18;;;;;;;49.43;27.23;;;17.80;99.90;;;;;;5075053;28;20329;-76
2021/08/22 02:39:47;;;;;;;48.73;27.53;;;17.90;99.90;;;;;;5074567;28;20212;-76
2021/08/22 02:42:15;;;;;;;48.70;25.07;;;17.90;99.90;;;;;;5074645;28;20538;-75
2021/08/22 02:44:42;;;;;;;44.53;24.90;;;17.90;99.90;;;;;;5074661;28;20215;-75
2021/08/22 02:47:10;;;;;;;37.77;23.40;;;17.80;99.90;;;;;;5074844;28;20279;-75
2021/08/22 02:49:37;;;;;;;38.60;22.73;;;17.90;99.90;;;;;;5074818;28;20209;-75
2021/08/22 02:52:04;;;;;;;40.17;21.97;;;17.80;99.90;;;;;;5074441;28;20360;-77
2021/08/22 02:54:31;;;;;;;35.93;22.03;;;17.80;99.90;;;;;;5074930;28;20227;-75
2021/08/22 02:56:59;;;;;;;36.70;20.97;;;17.80;99.90;;;;;;5074737;28;20297;-78
2021/08/22 02:59:26;;;;;;;32.63;20.20;;;17.80;99.90;;;;;;5074863;28;20291;-75
2021/08/22 03:01:53;;;;;;;36.40;20.67;;;17.80;99.90;;;;;;5074548;28;20200;-75
2021/08/22 03:04:20;;;;;;;35.80;21.67;;;17.80;99.90;;;;;;5074397;28;20238;-75
2021/08/22 03:06:47;;;;;;;32.63;20.70;;;17.70;99.90;;;;;;5073992;28;20287;-77
2021/08/22 03:09:14;;;;;;;37.97;21.73;;;17.70;99.90;;;;;;5074237;28;20654;-75
2021/08/22 03:11:41;;;;;;;34.17;20.83;;;17.70;99.90;;;;;;5074600;28;20206;-75
2021/08/22 03:14:09;;;;;;;35.43;20.63;;;17.70;99.90;;;;;;5074324;28;20243;-75
2021/08/22 03:16:36;;;;;;;34.60;20.23;;;17.70;99.90;;;;;;5074295;28;20230;-75
2021/08/22 03:19:03;;;;;;;34.90;19.80;;;17.60;99.90;;;;;;5074168;28;20285;-76
2021/08/22 03:21:31;;;;;;;32.43;20.03;;;17.70;99.90;;;;;;5074096;28;20203;-75
2021/08/22 03:23:58;;;;;;;31.33;19.40;;;17.70;99.90;;;;;;5073889;28;20257;-78
2021/08/22 03:26:25;;;;;;;30.77;19.37;;;17.70;99.90;;;;;;5073897;28;20286;-75
2021/08/22 03:28:53;;;;;;;28.23;18.33;;;17.70;99.90;;;;;;5074032;28;20238;-76
2021/08/22 03:31:21;;;;;;;33.37;18.67;;;17.70;99.90;;;;;;5073672;28;20242;-75
2021/08/22 03:33:48;;;;;;;31.17;18.33;;;17.70;99.90;;;;;;5073832;28;20226;-75
2021/08/22 03:36:14;;;;;;;30.00;17.60;;;17.80;99.90;;;;;;5073421;28;20206;-78
2021/08/22 03:38:41;;;;;;;25.07;16.60;;;17.90;99.90;;;;;;5073835;28;20282;-76
2021/08/22 03:41:08;;;;;;;26.93;17.17;;;17.80;99.90;;;;;;5073945;28;20286;-75
2021/08/22 03:43:35;;;;;;;29.37;18.00;;;17.80;99.90;;;;;;5073822;28;20247;-76
2021/08/22 03:46:02;;;;;;;28.53;17.20;;;17.80;99.90;;;;;;5073478;28;20235;-75
2021/08/22 03:48:30;;;;;;;24.87;17.00;;;17.80;99.90;;;;;;5073475;28;20279;-78
2021/08/22 03:50:57;;;;;;;29.80;17.83;;;17.70;99.90;;;;;;5073633;28;20290;-76
2021/08/22 03:53:24;;;;;;;24.10;16.70;;;17.70;99.90;;;;;;5073317;28;20294;-75
2021/08/22 03:55:51;;;;;;;26.13;16.93;;;17.70;99.90;;;;;;5073299;28;20661;-76
2021/08/22 03:58:18;;;;;;;26.10;16.90;;;17.70;99.90;;;;;;5073177;28;20294;-76
2021/08/22 04:00:45;;;;;;;25.77;17.17;;;17.70;99.90;;;;;;5073208;28;20200;-75
2021/08/22 04:03:11;;;;;;;26.90;17.60;;;17.70;99.90;;;;;;5073402;28;20286;-75
2021/08/22 04:05:40;;;;;;;26.07;17.40;;;17.80;99.90;;;;;;5072952;28;20681;-75
2021/08/22 04:08:07;;;;;;;26.60;16.50;;;17.80;99.90;;;;;;5073135;28;20701;-78
2021/08/22 04:10:34;;;;;;;23.20;15.93;;;17.80;99.90;;;;;;5072939;28;20231;-76
2021/08/22 04:13:01;;;;;;;21.47;15.80;;;17.80;99.90;;;;;;5072961;28;20199;-75
2021/08/22 04:15:28;;;;;;;23.83;15.50;;;17.80;99.90;;;;;;5073075;28;20314;-75
2021/08/22 04:17:55;;;;;;;23.47;15.50;;;17.80;99.90;;;;;;5073309;28;20203;-78
2021/08/22 04:20:22;;;;;;;22.20;13.63;;;17.70;99.90;;;;;;5072960;28;20290;-75
2021/08/22 04:22:51;;;;;;;21.20;13.13;;;17.70;99.90;;;;;;5073496;28;20573;-77
2021/08/22 04:25:18;;;;;;;21.70;12.73;;;17.70;99.90;;;;;;5073131;28;20716;-78
2021/08/22 04:27:45;;;;;;;20.17;12.57;;;17.70;99.90;;;;;;5073208;28;20617;-76
2021/08/22 04:30:13;;;;;;;19.83;12.60;;;17.70;99.90;;;;;;5072547;28;20196;-76
2021/08/22 04:32:40;;;;;;;19.93;12.23;;;17.70;99.90;;;;;;5073463;28;20198;-75
2021/08/22 04:35:08;;;;;;;19.23;11.43;;;17.70;99.90;;;;;;5072549;28;20592;-77
2021/08/22 04:37:35;;;;;;;19.27;11.70;;;17.70;99.90;;;;;;5073001;28;20270;-75
2021/08/22 04:40:05;;;;;;;19.07;11.83;;;17.70;99.90;;;;;;5072432;28;20200;-75
2021/08/22 04:42:32;;;;;;;19.57;10.80;;;17.70;99.90;;;;;;5072819;28;20217;-75
2021/08/22 04:45:00;;;;;;;15.70;10.60;;;17.80;99.90;;;;;;5072791;28;20307;-77
2021/08/22 04:47:26;;;;;;;17.97;11.13;;;17.70;99.90;;;;;;5072894;28;20560;-75
2021/08/22 04:49:54;;;;;;;17.47;9.97;;;17.70;99.90;;;;;;5072330;28;20291;-75
2021/08/22 04:52:21;;;;;;;17.13;10.50;;;17.70;99.90;;;;;;5072667;28;20204;-75
2021/08/22 04:54:47;;;;;;;17.27;10.67;;;17.60;99.90;;;;;;5072527;28;20227;-75
2021/08/22 04:57:16;;;;;;;19.30;11.33;;;17.60;99.90;;;;;;5072123;28;20223;-75
2021/08/22 04:59:43;;;;;;;14.53;10.23;;;17.60;99.90;;;;;;5072893;28;20219;-77
2021/08/22 05:02:09;;;;;;;20.43;10.87;;;17.50;99.90;;;;;;5072383;28;20206;-74
2021/08/22 05:04:36;;;;;;;24.00;10.90;;;17.50;99.90;;;;;;5072346;28;20216;-76
2021/08/22 05:07:05;;;;;;;16.67;10.77;;;17.40;99.90;;;;;;5072203;28;20246;-74
2021/08/22 05:09:32;;;;;;;18.07;11.13;;;17.30;99.90;;;;;;5072550;28;20195;-75
2021/08/22 05:11:59;;;;;;;17.60;10.70;;;17.30;99.90;;;;;;5072515;28;20203;-74
2021/08/22 05:14:28;;;;;;;20.77;10.80;;;17.30;99.90;;;;;;5072197;28;20716;-76
2021/08/22 05:16:54;;;;;;;18.03;10.13;;;17.30;99.90;;;;;;5070579;28;20650;-76
2021/08/22 05:19:21;;;;;;;17.23;10.20;;;17.30;99.90;;;;;;5071949;28;20204;-76
2021/08/22 05:21:48;;;;;;;24.80;9.67;;;17.30;99.90;;;;;;5072454;28;20211;-74
2021/08/22 05:24:15;;;;;;;18.73;9.23;;;17.40;99.90;;;;;;5072001;28;20203;-76
2021/08/22 05:26:42;;;;;;;15.23;8.80;;;17.40;99.90;;;;;;5071903;28;20198;-75
2021/08/22 05:29:09;;;;;;;13.00;8.53;;;17.50;99.90;;;;;;5072091;28;20198;-74
2021/08/22 05:31:37;;;;;;;14.43;7.90;;;17.60;99.90;;;;;;5072032;28;20223;-73
2021/08/22 05:34:04;;;;;;;15.27;7.13;;;17.80;99.90;;;;;;5068927;28;20680;-74
2021/08/22 05:36:35;;;;;;;10.53;6.73;;;18.00;99.90;;;;;;5071879;28;20290;-76
2021/08/22 05:39:03;;;;;;;15.87;7.30;;;18.20;99.90;;;;;;5070966;28;20200;-73
2021/08/22 05:41:30;;;;;;;10.37;6.57;;;18.30;99.90;;;;;;5071803;28;20287;-76
2021/08/22 05:43:57;;;;;;;12.63;6.50;;;18.50;99.90;;;;;;5075433;28;20752;-76
2021/08/22 05:46:24;;;;;;;15.53;6.33;;;18.70;99.90;;;;;;5076011;28;20196;-74
2021/08/22 05:48:52;;;;;;;9.37;6.40;;;18.70;99.90;;;;;;5076121;28;20202;-74
2021/08/22 05:51:20;;;;;;;8.67;5.87;;;18.80;99.90;;;;;;5075802;28;20234;-75
2021/08/22 05:53:48;;;;;;;13.57;6.70;;;19.00;99.90;;;;;;5076110;28;20196;-74
2021/08/22 05:56:15;;;;;;;10.20;5.33;;;19.20;99.90;;;;;;5076023;28;20222;-74
2021/08/22 05:58:42;;;;;;;13.30;5.53;;;19.50;99.90;;;;;;5075853;28;20202;-74
2021/08/22 06:01:09;;;;;;;10.53;5.23;;;19.60;99.90;;;;;;5075769;28;20227;-75
2021/08/22 06:03:36;;;;;;;9.83;5.13;;;19.60;99.90;;;;;;5075933;28;20227;-77
2021/08/22 06:06:07;;;;;;;9.20;5.27;;;19.40;99.90;;;;;;5075531;28;20231;-76
2021/08/22 06:08:35;;;;;;;11.00;5.53;;;19.40;99.90;;;;;;5075673;28;20192;-75
2021/08/22 06:11:02;;;;;;;12.37;5.30;;;19.30;99.90;;;;;;5075706;28;20196;-74
2021/08/22 06:13:29;;;;;;;13.07;4.97;;;19.10;99.90;;;;;;5075810;28;20584;-75
2021/08/22 06:15:56;;;;;;;13.33;5.77;;;19.00;99.90;;;;;;5075421;28;20251;-74
2021/08/22 06:18:22;;;;;;;12.73;5.83;;;19.00;99.90;;;;;;5075148;28;20282;-74
2021/08/22 06:20:49;;;;;;;20.87;5.50;;;18.90;99.90;;;;;;5075586;28;20386;-77
2021/08/22 06:23:18;;;;;;;10.57;5.13;;;18.90;99.90;;;;;;5075581;28;20561;-73
2021/08/22 06:25:45;;;;;;;12.40;5.27;;;18.90;99.90;;;;;;5075319;28;20290;-74
2021/08/22 06:28:13;;;;;;;11.37;4.90;;;19.00;99.90;;;;;;5075601;28;20206;-78
2021/08/22 06:30:40;;;;;;;14.13;4.83;;;19.10;99.90;;;;;;5075150;28;20200;-77
2021/08/22 06:33:07;;;;;;;11.07;5.00;;;19.10;99.90;;;;;;5075366;28;20234;-78
2021/08/22 06:35:34;;;;;;;11.57;5.30;;;19.00;99.90;;;;;;5075153;28;20228;-77
2021/08/22 06:38:00;;;;;;;17.37;5.33;;;19.10;99.90;;;;;;5075039;28;20239;-75
2021/08/22 06:40:29;;;;;;;9.53;4.80;;;19.10;99.90;;;;;;5074921;28;20206;-74
2021/08/22 06:42:56;;;;;;;10.70;4.83;;;19.10;99.90;;;;;;5075088;28;20243;-74
2021/08/22 06:45:23;;;;;;;11.00;4.80;;;19.20;99.90;;;;;;5074909;28;20288;-75
2021/08/22 06:47:53;;;;;;;13.47;5.13;;;19.30;99.90;;;;;;5074932;28;20278;-74
2021/08/22 06:50:21;;;;;;;10.67;4.83;;;19.20;99.90;;;;;;5075308;28;20196;-74
2021/08/22 06:52:48;;;;;;;8.60;4.83;;;19.60;99.90;;;;;;5074963;28;20207;-74
2021/08/22 06:55:15;;;;;;;13.77;5.07;;;19.70;99.90;;;;;;5074550;28;20229;-75
2021/08/22 06:57:43;;;;;;;12.33;5.17;;;19.70;99.90;;;;;;5074658;28;20730;-76
2021/08/22 07:00:11;;;;;;;11.23;5.10;;;19.60;99.90;;;;;;5074648;28;20238;-74
2021/08/22 07:02:38;;;;;;;12.93;4.97;;;19.60;99.90;;;;;;5074825;28;20226;-76
2021/08/22 07:05:06;;;;;;;9.23;4.77;;;19.60;99.90;;;;;;5074679;28;20199;-75
2021/08/22 07:07:33;;;;;;;14.13;5.20;;;19.60;99.90;;;;;;5074653;28;20679;-75
2021/08/22 07:09:59;;;;;;;8.60;4.73;;;19.60;99.90;;;;;;5074666;28;20207;-75
2021/08/22 07:12:26;;;;;;;10.83;4.90;;;19.60;99.90;;;;;;5074270;28;20290;-78
2021/08/22 07:14:55;;;;;;;12.07;5.07;;;19.70;99.90;;;;;;5071884;28;20310;-75
2021/08/22 07:17:22;;;;;;;16.80;4.73;;;19.70;99.90;;;;;;5073245;28;20634;-75
2021/08/22 07:19:49;;;;;;;11.03;4.77;;;19.80;99.90;;;;;;5073924;28;20575;-75
2021/08/22 07:22:16;;;;;;;10.23;4.60;;;20.00;99.90;;;;;;5074493;28;20195;-76
2021/08/22 07:24:43;;;;;;;8.23;4.47;;;20.20;99.90;;;;;;5074253;28;20230;-77
2021/08/22 07:27:10;;;;;;;17.23;4.60;;;20.50;99.90;;;;;;5074531;28;20192;-77
2021/08/22 07:29:37;;;;;;;13.20;4.70;;;20.70;99.90;;;;;;5074401;28;20286;-75
2021/08/22 07:32:07;;;;;;;9.30;4.97;;;20.90;99.90;;;;;;5074174;28;20657;-74
2021/08/22 07:34:33;;;;;;;8.83;4.87;;;21.10;99.90;;;;;;5074139;28;20556;-79
2021/08/22 07:37:00;;;;;;;9.13;4.33;;;21.30;99.90;;;;;;5074831;28;20745;-76
2021/08/22 07:39:27;;;;;;;10.50;4.30;;;21.30;99.90;;;;;;5073952;28;20625;-75
2021/08/22 07:41:54;;;;;;;9.87;4.57;;;21.60;99.90;;;;;;5073985;28;20287;-77
2021/08/22 07:44:21;;;;;;;10.07;4.53;;;21.80;99.90;;;;;;5074138;28;20199;-78
2021/08/22 07:46:49;;;;;;;8.52;4.47;;;22.00;99.90;;;;;;5074097;28;20195;-76
2021/08/22 07:49:19;;;;;;;13.95;5.13;;;22.30;99.90;;;;;;5073756;28;20684;-77
2021/08/22 07:51:47;;;;;;;8.43;4.80;;;22.30;99.90;;;;;;5073764;28;20199;-78
2021/08/22 07:54:14;;;;;;;11.43;4.83;;;21.90;99.90;;;;;;5073551;28;20242;-76
2021/08/22 07:56:42;;;;;;;12.70;5.17;;;21.30;99.90;;;;;;5073221;28;20261;-77
2021/08/22 07:59:09;;;;;;;12.87;5.23;;;20.90;99.90;;;;;;5073050;28;20658;-78
2021/08/22 08:01:36;;;;;;;16.00;5.20;;;20.50;99.90;;;;;;5073708;28;20253;-75
2021/08/22 08:04:03;;;;;;;12.23;4.87;;;20.20;99.90;;;;;;5073274;28;20275;-77
2021/08/22 08:06:31;;;;;;;11.63;4.83;;;20.00;99.90;;;;;;5072496;28;20207;-75
2021/08/22 08:08:59;;;;;;;11.83;5.00;;;19.80;99.90;;;;;;5073779;28;20230;-77
2021/08/22 08:11:26;;;;;;;13.60;4.73;;;19.60;99.90;;;;;;5073603;28;20199;-77
2021/08/22 08:13:53;;;;;;;11.03;4.83;;;19.50;99.90;;;;;;5073722;28;20666;-78
2021/08/22 08:16:19;;;;;;;10.00;4.93;;;19.50;99.90;;;;;;5073903;28;20421;-78
2021/08/22 08:18:46;;;;;;;8.67;4.70;;;19.40;99.90;;;;;;5068564;28;20286;-75
2021/08/22 08:21:13;;;;;;;13.47;5.13;;;19.40;99.90;;;;;;5072162;28;20248;-75
2021/08/22 08:23:41;;;;;;;11.00;5.03;;;19.50;99.90;;;;;;5073380;28;20230;-76
2021/08/22 08:26:08;;;;;;;8.33;4.30;;;19.90;99.90;;;;;;5073122;28;20203;-75
2021/08/22 08:28:35;;;;;;;11.53;4.60;;;20.30;99.90;;;;;;5073457;28;20286;-79
2021/08/22 08:31:02;;;;;;;10.90;4.17;;;20.60;99.90;;;;;;5072981;28;20695;-78
2021/08/22 08:33:29;;;;;;;7.67;4.00;;;20.80;99.90;;;;;;5073145;28;20206;-75
2021/08/22 08:35:56;;;;;;;6.73;3.83;;;21.00;99.90;;;;;;5072967;28;20262;-76
2021/08/22 08:38:23;;;;;;;4.83;3.33;;;20.70;99.90;;;;;;5073204;28;20249;-75
2021/08/22 08:40:51;;;;;;;7.47;3.83;;;20.90;99.90;;;;;;5073246;28;20219;-75
2021/08/22 08:43:18;;;;;;;7.57;3.40;;;21.00;99.90;;;;;;5076891;28;20294;-76
2021/08/22 08:45:51;;;;;;;7.87;3.70;;;20.80;99.90;;;;;;5081187;28;20203;-76
2021/08/22 08:48:22;;;;;;;10.53;3.90;;;20.60;99.90;;;;;;5086042;28;20238;-76
2021/08/22 08:50:54;;;;;;;7.40;3.80;;;20.40;99.90;;;;;;5086873;28;20243;-76
2021/08/22 08:53:21;;;;;;;8.37;3.40;;;20.40;99.90;;;;;;5078124;28;20631;-77
2021/08/22 08:55:48;;;;;;;9.20;3.83;;;20.40;99.90;;;;;;5092173;28;20293;-76
2021/08/22 08:58:17;;;;;;;6.67;3.80;;;20.30;99.90;;;;;;5090946;28;20284;-77
2021/08/22 09:00:43;;;;;;;6.87;3.97;;;20.20;99.90;;;;;;5089706;28;20274;-76
2021/08/22 09:03:14;;;;;;;5.77;3.50;;;19.80;99.90;;;;;;5089065;28;20199;-75
2021/08/22 09:06:32;;;;;;;5.17;3.67;;;19.70;99.90;;;;;;5093972;28;20216;-77
2021/08/22 09:09:40;;;;;;;6.37;3.60;;;19.80;99.90;;;;;;5087597;28;20361;-76
2021/08/22 09:12:32;;;;;;;7.27;3.80;;;19.60;99.90;;;;;;5082900;28;20721;-76
2021/08/22 09:15:36;;;;;;;5.57;3.53;;;19.60;99.90;;;;;;5060219;28;20672;-76
2021/08/22 09:18:41;;;;;;;7.30;3.80;;;19.50;99.90;;;;;;5084699;28;20608;-77
2021/08/22 09:21:45;;;;;;;5.17;3.50;;;19.40;99.90;;;;;;5085410;28;20286;-75
2021/08/22 09:24:44;;;;;;;7.20;4.13;;;19.50;99.90;;;;;;5089289;28;20392;-75
2021/08/22 09:27:53;;;;;;;7.07;4.03;;;19.50;99.90;;;;;;5086977;28;20731;-78
2021/08/22 09:31:05;;;;;;;7.10;4.20;;;19.30;99.90;;;;;;5088760;28;20249;-77
2021/08/22 09:34:09;;;;;;;8.50;4.23;;;19.10;99.90;;;;;;5010886;28;20205;-79
2021/08/22 09:37:12;;;;;;;7.17;4.20;;;18.90;99.90;;;;;;5068969;28;20220;-76
2021/08/22 09:40:28;;;;;;;6.10;3.80;;;19.00;99.90;;;;;;5054694;28;20238;-75
2021/08/22 09:43:40;;;;;;;7.07;3.87;;;19.40;99.90;;;;;;5080409;28;20290;-74
2021/08/22 09:46:40;;;;;;;6.00;3.57;;;19.80;99.90;;;;;;5042788;28;20203;-78
2021/08/22 09:49:54;;;;;;;4.93;3.20;;;20.20;99.90;;;;;;5031097;28;20303;-78
2021/08/22 09:53:03;;;;;;;5.00;3.07;;;21.00;99.90;;;;;;5055140;28;20629;-76
2021/08/22 09:56:09;;;;;;;6.13;3.08;;;22.60;99.90;;;;;;5075115;28;20254;-75
2021/08/22 09:59:10;;;;;;;5.03;2.85;;;24.10;99.90;;;;;;5069770;28;20230;-75
2021/08/22 10:02:13;;;;;;;4.85;2.80;;;24.40;99.90;;;;;;5073020;28;20221;-75
2021/08/22 10:05:14;;;;;;;4.75;2.90;;;25.30;99.90;;;;;;5053030;28;20290;-75
2021/08/22 10:08:15;;;;;;;5.68;2.92;;;24.90;99.90;;;;;;5055521;28;20187;-74
2021/08/22 10:10:45;;;;;;;5.05;3.30;;;24.30;99.90;;;;;;5055841;28;20275;-74
2021/08/22 10:13:12;;;;;;;5.32;3.28;;;23.40;99.90;;;;;;5055710;28;20220;-77
2021/08/22 10:15:43;;;;;;;4.32;3.20;;;23.70;99.90;;;;;;5065573;28;20226;-77
2021/08/22 10:18:11;;;;;;;5.18;2.70;;;25.10;99.90;;;;;;5074471;28;20295;-76
2021/08/22 10:20:41;;;;;;;5.45;2.95;;;26.20;99.90;;;;;;5074357;28;20605;-75
2021/08/22 10:23:47;;;;;;;6.03;3.42;;;26.30;99.90;;;;;;5075433;28;20290;-78
2021/08/22 10:26:49;;;;;;;4.65;3.13;;;26.50;99.90;;;;;;5059594;28;20680;-75
2021/08/22 10:29:19;;;;;;;5.43;2.67;;;27.20;99.90;;;;;;5074565;28;20230;-77
2021/08/22 10:32:14;;;;;;;4.40;2.83;;;28.30;99.90;;;;;;5071976;28;20196;-78
2021/08/22 10:34:45;;;;;;;4.45;2.75;;;28.30;99.90;;;;;;5072687;28;20257;-76
2021/08/22 10:37:27;;;;;;;3.15;2.50;;;27.70;99.90;;;;;;5075655;28;20273;-77
2021/08/22 10:39:54;;;;;;;3.35;2.65;;;27.10;99.90;;;;;;5083648;28;20202;-76
2021/08/22 10:42:24;;;;;;;2.80;2.35;;;26.70;99.90;;;;;;5065207;28;20275;-75
2021/08/22 10:44:52;;;;;;;4.45;2.90;;;26.20;99.90;;;;;;5057821;28;20215;-76
2021/08/22 10:47:41;;;;;;;5.50;3.00;;;26.00;99.90;;;;;;5062042;28;20657;-77
2021/08/22 10:50:08;;;;;;;3.92;2.75;;;26.00;99.90;;;;;;5062579;28;20200;-75
2021/08/22 10:52:36;;;;;;;4.18;2.63;;;25.60;99.90;;;;;;5058246;28;20200;-76
2021/08/22 10:55:29;;;;;;;4.25;2.67;;;25.50;99.90;;;;;;5057598;28;20238;-75
2021/08/22 10:57:58;;;;;;;6.00;2.72;;;25.10;99.90;;;;;;5068349;28;20191;-76
2021/08/22 11:00:26;;;;;;;4.75;2.80;;;24.60;99.90;;;;;;5074329;28;20220;-76
2021/08/22 11:02:54;;;;;;;4.47;2.50;;;24.00;99.90;;;;;;5073850;28;20200;-78
2021/08/22 11:05:23;;;;;;;4.72;2.58;;;23.30;99.90;;;;;;5074246;28;20460;-76
2021/08/22 11:07:52;;;;;;;4.72;2.55;;;22.80;99.90;;;;;;5073887;28;20279;-78
2021/08/22 11:10:20;;;;;;;3.47;2.88;;;22.20;99.90;;;;;;5063300;28;20231;-75
2021/08/22 11:12:49;;;;;;;4.05;2.45;;;21.90;99.90;;;;;;5066891;28;20196;-77
2021/08/22 11:15:25;;;;;;;4.97;2.53;;;22.20;99.90;;;;;;5071417;28;20294;-77
2021/08/22 11:17:53;;;;;;;3.30;2.60;;;22.30;99.90;;;;;;5068567;28;20255;-75
2021/08/22 11:20:23;;;;;;;3.97;2.28;;;22.60;99.90;;;;;;5074144;28;20291;-76
2021/08/22 11:22:55;;;;;;;5.28;2.08;;;22.40;99.90;;;;;;5069866;28;20210;-76
2021/08/22 11:25:26;;;;;;;3.42;1.90;;;22.40;99.90;;;;;;5072491;28;20239;-77
2021/08/22 11:28:04;;;;;;;3.47;2.00;;;22.50;99.90;;;;;;5056601;28;20254;-77
2021/08/22 11:30:32;;;;;;;2.75;1.98;;;23.00;99.90;;;;;;5060572;28;20218;-76
2021/08/22 11:33:00;;;;;;;2.60;1.85;;;23.20;99.90;;;;;;5072375;28;20550;-77
2021/08/22 11:35:26;;;;;;;2.58;1.98;;;23.00;99.90;;;;;;5073140;28;20234;-75
2021/08/22 11:37:55;;;;;;;3.50;2.17;;;22.60;99.90;;;;;;5073079;28;20630;-75
2021/08/22 11:40:24;;;;;;;3.92;1.90;;;22.40;99.90;;;;;;5073000;28;20577;-75
2021/08/22 11:42:53;;;;;;;3.95;2.50;;;22.50;99.90;;;;;;5059232;28;20711;-77
2021/08/22 11:45:21;;;;;;;3.38;2.20;;;22.70;99.90;;;;;;5062731;28;20208;-76
2021/08/22 11:47:51;;;;;;;3.28;2.13;;;22.80;99.90;;;;;;5055983;28;20299;-77
2021/08/22 11:50:23;;;;;;;3.95;2.10;;;22.60;99.90;;;;;;5085934;28;20195;-77
2021/08/22 11:52:53;;;;;;;3.92;2.20;;;22.20;99.90;;;;;;5074276;28;20207;-77
2021/08/22 11:55:21;;;;;;;2.97;2.07;;;21.90;99.90;;;;;;5069557;28;20203;-76
2021/08/22 11:57:49;;;;;;;3.57;2.50;;;21.50;99.90;;;;;;5074969;28;20216;-77
2021/08/22 12:00:19;;;;;;;4.77;2.80;;;21.00;99.90;;;;;;5088472;28;20207;-77
2021/08/22 12:02:59;;;;;;;5.43;2.30;;;20.40;99.90;;;;;;5071955;28;20222;-77
2021/08/22 12:05:27;;;;;;;4.27;2.23;;;20.00;99.90;;;;;;5073078;28;20204;-75
2021/08/22 12:08:05;;;;;;;12.40;2.90;;;19.90;99.90;;;;;;5070741;28;20211;-76
2021/08/22 12:10:33;;;;;;;5.40;2.43;;;19.80;99.90;;;;;;5070889;28;20205;-77
2021/08/22 12:13:02;;;;;;;4.17;2.90;;;19.50;99.90;;;;;;5072852;28;20226;-77
2021/08/22 12:15:31;;;;;;;4.97;3.20;;;19.40;99.90;;;;;;5072945;28;20208;-76
2021/08/22 12:18:17;;;;;;;4.40;2.77;;;19.40;99.90;;;;;;5073300;28;20659;-79
2021/08/22 12:20:45;;;;;;;7.03;2.93;;;19.30;99.90;;;;;;5073331;28;20200;-78
2021/08/22 12:23:14;;;;;;;5.07;3.00;;;19.30;99.90;;;;;;5079163;28;20651;-78
2021/08/22 12:25:42;;;;;;;8.10;3.23;;;19.40;99.90;;;;;;5071235;28;20624;-79
2021/08/22 12:28:22;;;;;;;5.10;3.37;;;19.50;99.90;;;;;;5071569;28;20211;-76
2021/08/22 12:31:01;;;;;;;7.13;3.63;;;19.50;99.90;;;;;;5072017;28;20666;-77
2021/08/22 12:33:33;;;;;;;5.27;4.20;;;19.50;99.90;;;;;;5069394;28;20195;-81
2021/08/22 12:36:12;;;;;;;8.43;4.87;;;19.50;99.90;;;;;;5070499;28;20199;-80
2021/08/22 12:38:42;;;;;;;8.87;6.70;;;19.50;99.90;;;;;;5072044;28;20195;-82
2021/08/22 12:41:34;;;;;;;10.20;6.60;;;19.50;99.90;;;;;;5068713;28;20257;-76
2021/08/22 12:44:03;;;;;;;7.50;6.80;;;19.40;99.90;;;;;;5072510;28;20219;-79
2021/08/22 12:46:32;;;;;;;7.80;6.20;;;19.40;99.90;;;;;;5080261;28;20285;-76
2021/08/22 12:49:02;;;;;;;8.17;6.40;;;19.30;99.90;;;;;;5078981;28;20623;-78
2021/08/22 12:51:29;;;;;;;7.27;6.43;;;19.30;99.90;;;;;;5071014;28;20241;-78
2021/08/22 12:53:57;;;;;;;9.50;7.30;;;19.30;99.90;;;;;;5072101;28;20286;-76
2021/08/22 12:56:25;;;;;;;8.27;6.80;;;19.40;99.90;;;;;;5071969;28;20769;-79